Time;durP1;ratioP1;P1;durP2;ratioP2;P2;SDS_P1;SDS_P2;PMS_P1;PMS_P2;Temp;Humidity;BMP_temperature;BMP_pressure;BME280_temperature;BME280_humidity;BME280_pressure;Samples;Min_cycle;Max_cycle;Signal;HPM_P1;HPM_P2
2023/03/20 00:00:09;;;;;;;13.52;5.28;;;;;;;;;;4961494;28;20058;-66
2023/03/20 00:02:37;;;;;;;14.88;5.88;;;;;;;;;;4959678;28;20051;-66
2023/03/20 00:05:14;;;;;;;16.90;5.40;;;;;;;;;;4960311;28;20495;-66
2023/03/20 00:07:41;;;;;;;11.18;5.20;;;;;;;;;;4944585;28;20137;-66
2023/03/20 00:10:08;;;;;;;10.20;5.15;;;;;;;;;;4958789;28;20054;-66
2023/03/20 00:12:34;;;;;;;11.63;5.68;;;;;;;;;;4959122;28;20410;-66
2023/03/20 00:15:02;;;;;;;12.52;4.78;;;;;;;;;;4960360;28;20078;-67
2023/03/20 00:17:28;;;;;;;11.95;4.57;;;;;;;;;;4962099;28;20053;-66
2023/03/20 00:19:54;;;;;;;10.98;5.03;;;;;;;;;;4962181;28;20043;-66
2023/03/20 00:22:21;;;;;;;11.07;4.68;;;;;;;;;;4945765;28;20039;-66
2023/03/20 00:24:47;;;;;;;9.88;5.10;;;;;;;;;;4942855;28;20066;-66
2023/03/20 00:27:14;;;;;;;11.73;5.60;;;;;;;;;;4944691;28;20125;-66
2023/03/20 00:29:41;;;;;;;16.33;5.57;;;;;;;;;;4958875;28;20051;-66
2023/03/20 00:32:11;;;;;;;12.00;5.75;;;;;;;;;;4961407;28;20042;-66
2023/03/20 00:34:37;;;;;;;14.85;6.05;;;;;;;;;;4938139;28;20055;-67
2023/03/20 00:37:03;;;;;;;13.65;6.13;;;;;;;;;;4962782;28;20081;-66
2023/03/20 00:39:30;;;;;;;18.80;6.53;;;;;;;;;;4942204;28;20077;-66
2023/03/20 00:42:00;;;;;;;14.55;6.78;;;;;;;;;;4955662;28;20061;-66
2023/03/20 00:44:31;;;;;;;24.27;6.90;;;;;;;;;;4943681;28;20892;-67
2023/03/20 00:46:59;;;;;;;16.48;6.68;;;;;;;;;;4962385;28;20335;-66
2023/03/20 00:49:27;;;;;;;14.27;7.20;;;;;;;;;;4962123;28;20057;-66
2023/03/20 00:51:54;;;;;;;24.15;7.60;;;;;;;;;;4960959;28;20502;-66
2023/03/20 00:54:20;;;;;;;20.80;7.72;;;;;;;;;;4958749;28;20351;-66
2023/03/20 00:57:03;;;;;;;13.75;7.38;;;;;;;;;;4962236;28;20490;-66
2023/03/20 00:59:31;;;;;;;19.15;8.15;;;;;;;;;;4943080;28;20046;-66
2023/03/20 01:01:58;;;;;;;19.48;8.48;;;;;;;;;;4961090;28;20082;-66
2023/03/20 01:04:27;;;;;;;15.60;7.78;;;;;;;;;;4958394;28;20046;-66
2023/03/20 01:06:54;;;;;;;18.35;7.18;;;;;;;;;;4959971;28;20050;-66
2023/03/20 01:09:20;;;;;;;20.95;7.65;;;;;;;;;;4960482;28;20077;-66
2023/03/20 01:11:46;;;;;;;23.55;8.05;;;;;;;;;;4959113;28;20035;-66
2023/03/20 01:14:14;;;;;;;18.95;8.90;;;;;;;;;;4945074;28;20129;-66
2023/03/20 01:16:40;;;;;;;20.92;8.10;;;;;;;;;;4944967;28;20102;-66
2023/03/20 01:19:06;;;;;;;21.65;8.13;;;;;;;;;;4961664;28;20066;-66
2023/03/20 01:21:32;;;;;;;16.17;8.05;;;;;;;;;;4962342;28;20043;-66
2023/03/20 01:23:58;;;;;;;22.15;7.50;;;;;;;;;;4963152;28;20035;-67
2023/03/20 01:26:34;;;;;;;20.50;7.65;;;;;;;;;;4965129;28;20069;-66
2023/03/20 01:29:00;;;;;;;16.90;7.60;;;;;;;;;;4963555;28;20054;-66
2023/03/20 01:31:26;;;;;;;28.17;7.93;;;;;;;;;;4964058;28;20079;-66
2023/03/20 01:33:52;;;;;;;18.77;7.82;;;;;;;;;;4946092;28;20122;-66
2023/03/20 01:36:21;;;;;;;19.33;8.13;;;;;;;;;;4963210;28;20093;-66
2023/03/20 01:38:50;;;;;;;28.95;8.43;;;;;;;;;;4963646;28;20078;-66
2023/03/20 01:41:17;;;;;;;26.30;7.97;;;;;;;;;;4964280;28;20043;-67
2023/03/20 01:43:45;;;;;;;22.08;8.48;;;;;;;;;;4962110;28;20126;-66
2023/03/20 01:46:11;;;;;;;18.70;8.02;;;;;;;;;;4962736;28;20137;-66
2023/03/20 01:48:49;;;;;;;20.13;8.13;;;;;;;;;;4955818;28;20061;-66
2023/03/20 01:51:16;;;;;;;21.85;8.35;;;;;;;;;;4956319;28;20053;-66
2023/03/20 01:53:43;;;;;;;22.55;7.78;;;;;;;;;;4958795;28;20043;-67
2023/03/20 01:56:09;;;;;;;24.15;9.57;;;;;;;;;;4943138;28;20099;-67
2023/03/20 01:58:38;;;;;;;20.92;8.52;;;;;;;;;;4945962;28;20134;-66
2023/03/20 02:01:05;;;;;;;23.20;8.35;;;;;;;;;;4960946;28;20418;-66
2023/03/20 02:03:32;;;;;;;23.55;8.48;;;;;;;;;;4963834;28;20154;-66
2023/03/20 02:05:58;;;;;;;20.48;8.98;;;;;;;;;;4964538;28;20369;-66
2023/03/20 02:08:27;;;;;;;24.95;8.57;;;;;;;;;;4961675;28;20160;-66
2023/03/20 02:10:54;;;;;;;19.80;8.10;;;;;;;;;;4963095;28;20062;-66
2023/03/20 02:13:20;;;;;;;23.30;7.75;;;;;;;;;;4958999;28;20298;-67
2023/03/20 02:15:56;;;;;;;19.98;8.55;;;;;;;;;;4962192;28;20043;-66
2023/03/20 02:18:23;;;;;;;21.88;8.32;;;;;;;;;;4947825;28;20638;-66
2023/03/20 02:21:00;;;;;;;20.13;8.15;;;;;;;;;;4964613;28;20097;-66
2023/03/20 02:23:26;;;;;;;25.25;7.82;;;;;;;;;;4964982;28;20518;-66
2023/03/20 02:26:02;;;;;;;22.27;8.68;;;;;;;;;;4963830;28;20043;-66
2023/03/20 02:28:29;;;;;;;25.85;9.93;;;;;;;;;;4946934;28;20043;-66
2023/03/20 02:31:04;;;;;;;27.60;9.98;;;;;;;;;;4962623;28;20051;-66
2023/03/20 02:33:49;;;;;;;20.48;9.20;;;;;;;;;;4962666;28;20058;-66
2023/03/20 02:36:40;;;;;;;24.30;9.73;;;;;;;;;;4963029;28;20078;-66
2023/03/20 02:39:30;;;;;;;28.98;10.20;;;;;;;;;;4963350;28;20035;-66
2023/03/20 02:41:59;;;;;;;22.90;10.55;;;;;;;;;;4961527;28;20074;-66
2023/03/20 02:44:32;;;;;;;19.90;8.98;;;;;;;;;;4959726;28;20049;-66
2023/03/20 02:46:58;;;;;;;28.98;9.50;;;;;;;;;;4959481;28;20050;-66
2023/03/20 02:49:38;;;;;;;34.20;11.68;;;;;;;;;;4961303;28;20050;-66
2023/03/20 02:52:11;;;;;;;23.25;9.90;;;;;;;;;;4943156;28;20051;-66
2023/03/20 02:54:48;;;;;;;23.98;9.43;;;;;;;;;;4943682;28;20101;-66
2023/03/20 02:57:19;;;;;;;27.83;10.02;;;;;;;;;;4944935;28;20396;-66
2023/03/20 02:59:59;;;;;;;24.35;9.18;;;;;;;;;;4942685;28;20568;-66
2023/03/20 03:02:33;;;;;;;25.98;10.25;;;;;;;;;;4961089;28;20046;-66
2023/03/20 03:05:01;;;;;;;26.05;9.23;;;;;;;;;;4964147;28;20061;-66
2023/03/20 03:07:30;;;;;;;18.80;9.43;;;;;;;;;;4961624;28;20039;-66
2023/03/20 03:10:01;;;;;;;20.98;8.98;;;;;;;;;;4961196;28;20109;-66
2023/03/20 03:12:29;;;;;;;27.45;9.25;;;;;;;;;;4960597;28;20406;-66
2023/03/20 03:14:59;;;;;;;25.73;9.30;;;;;;;;;;4964634;28;20116;-66
2023/03/20 03:17:27;;;;;;;19.45;8.85;;;;;;;;;;4964976;28;20736;-66
2023/03/20 03:19:56;;;;;;;23.63;9.77;;;;;;;;;;4965162;28;20051;-66
2023/03/20 03:22:23;;;;;;;18.35;7.53;;;;;;;;;;4964829;28;20042;-66
2023/03/20 03:24:50;;;;;;;22.30;8.30;;;;;;;;;;4966780;28;20057;-66
2023/03/20 03:27:19;;;;;;;15.15;7.95;;;;;;;;;;4965369;28;20046;-66
2023/03/20 03:29:48;;;;;;;15.95;7.82;;;;;;;;;;4966899;28;20078;-67
2023/03/20 03:32:20;;;;;;;19.67;8.32;;;;;;;;;;4950629;28;20162;-66
2023/03/20 03:34:46;;;;;;;19.67;8.07;;;;;;;;;;4965660;28;20347;-66
2023/03/20 03:37:18;;;;;;;14.05;7.57;;;;;;;;;;4964179;28;20049;-66
2023/03/20 03:39:51;;;;;;;15.23;7.88;;;;;;;;;;4966237;28;21579;-67
2023/03/20 03:42:24;;;;;;;12.88;7.70;;;;;;;;;;4964813;28;20053;-67
2023/03/20 03:45:00;;;;;;;19.10;8.97;;;;;;;;;;4962052;28;20053;-66
2023/03/20 03:47:30;;;;;;;21.05;8.43;;;;;;;;;;4944655;28;20049;-64
2023/03/20 03:50:00;;;;;;;20.33;9.13;;;;;;;;;;4959815;28;20395;-66
2023/03/20 03:52:29;;;;;;;20.77;8.65;;;;;;;;;;4961066;28;20051;-66
2023/03/20 03:55:00;;;;;;;25.05;9.80;;;;;;;;;;4943236;28;20093;-66
2023/03/20 03:57:31;;;;;;;19.30;9.90;;;;;;;;;;4957254;28;20054;-66
2023/03/20 03:59:57;;;;;;;19.00;9.80;;;;;;;;;;4944260;28;20051;-66
2023/03/20 04:02:23;;;;;;;18.90;9.43;;;;;;;;;;4963288;28;20043;-65
2023/03/20 04:04:51;;;;;;;20.13;9.52;;;;;;;;;;4963047;28;20081;-65
2023/03/20 04:07:17;;;;;;;19.98;10.35;;;;;;;;;;4964149;28;20043;-66
2023/03/20 04:09:43;;;;;;;23.13;10.50;;;;;;;;;;4962909;28;20170;-66
2023/03/20 04:12:28;;;;;;;24.58;11.65;;;;;;;;;;4960629;28;20136;-65
2023/03/20 04:14:54;;;;;;;21.17;12.02;;;;;;;;;;4961300;28;20502;-65
2023/03/20 04:17:20;;;;;;;27.88;13.05;;;;;;;;;;4943377;28;20086;-66
2023/03/20 04:19:46;;;;;;;25.88;13.00;;;;;;;;;;4961125;28;20105;-66
2023/03/20 04:22:12;;;;;;;24.05;13.88;;;;;;;;;;4962105;28;20058;-65
2023/03/20 04:24:39;;;;;;;29.95;13.55;;;;;;;;;;4960665;28;20106;-66
2023/03/20 04:27:05;;;;;;;29.17;14.23;;;;;;;;;;4959666;28;20043;-66
2023/03/20 04:29:31;;;;;;;30.38;14.45;;;;;;;;;;4942929;28;20057;-65
2023/03/20 04:31:58;;;;;;;37.55;15.32;;;;;;;;;;4944031;28;20137;-66
2023/03/20 04:34:25;;;;;;;33.92;16.08;;;;;;;;;;4960716;28;20591;-65
2023/03/20 04:36:51;;;;;;;27.30;15.02;;;;;;;;;;4960244;28;20039;-65
2023/03/20 04:39:17;;;;;;;27.73;14.63;;;;;;;;;;4958075;28;20047;-66
2023/03/20 04:41:44;;;;;;;29.42;15.32;;;;;;;;;;4959914;28;20055;-65
2023/03/20 04:44:10;;;;;;;30.02;14.07;;;;;;;;;;4942865;28;20043;-65
2023/03/20 04:46:36;;;;;;;32.10;15.05;;;;;;;;;;4941322;28;20190;-65
2023/03/20 04:49:02;;;;;;;30.40;14.63;;;;;;;;;;4960997;28;20031;-65
2023/03/20 04:51:28;;;;;;;24.33;13.48;;;;;;;;;;4957889;28;20050;-66
2023/03/20 04:53:54;;;;;;;29.23;13.57;;;;;;;;;;4958720;28;20039;-66
2023/03/20 04:56:21;;;;;;;25.00;14.27;;;;;;;;;;4962759;28;20057;-66
2023/03/20 04:58:47;;;;;;;24.00;12.68;;;;;;;;;;4961032;28;20089;-66
2023/03/20 05:01:14;;;;;;;23.20;14.18;;;;;;;;;;4941513;28;20035;-66
2023/03/20 05:03:40;;;;;;;31.15;13.02;;;;;;;;;;4959979;28;20046;-66
2023/03/20 05:06:06;;;;;;;39.05;14.95;;;;;;;;;;4943152;28;20047;-66
2023/03/20 05:08:32;;;;;;;26.13;13.63;;;;;;;;;;4943222;28;20046;-66
2023/03/20 05:10:58;;;;;;;25.45;13.68;;;;;;;;;;4963787;28;20053;-66
2023/03/20 05:13:25;;;;;;;30.10;15.50;;;;;;;;;;4937597;28;21500;-66
2023/03/20 05:15:51;;;;;;;29.60;15.07;;;;;;;;;;4958605;28;20050;-66
2023/03/20 05:18:17;;;;;;;32.22;16.90;;;;;;;;;;4960799;28;20046;-66
2023/03/20 05:20:43;;;;;;;33.25;15.48;;;;;;;;;;4961453;28;20047;-66
2023/03/20 05:23:09;;;;;;;29.13;16.25;;;;;;;;;;4962393;28;20050;-65
2023/03/20 05:25:35;;;;;;;32.70;16.33;;;;;;;;;;4959907;28;20062;-66
2023/03/20 05:28:01;;;;;;;33.20;16.73;;;;;;;;;;4958899;28;20049;-66
2023/03/20 05:30:28;;;;;;;29.50;15.63;;;;;;;;;;4958294;28;20422;-66
2023/03/20 05:32:55;;;;;;;34.90;16.95;;;;;;;;;;4941134;28;20199;-66
2023/03/20 05:35:21;;;;;;;31.65;16.95;;;;;;;;;;4964086;28;20429;-66
2023/03/20 05:37:47;;;;;;;35.35;17.42;;;;;;;;;;4965668;28;20195;-66
2023/03/20 05:40:14;;;;;;;36.95;18.52;;;;;;;;;;4962268;28;21236;-66
2023/03/20 05:42:40;;;;;;;35.92;18.50;;;;;;;;;;4964228;28;20063;-66
2023/03/20 05:45:07;;;;;;;42.45;18.65;;;;;;;;;;4964271;28;20042;-66
2023/03/20 05:47:33;;;;;;;39.70;18.20;;;;;;;;;;4966949;28;20487;-66
2023/03/20 05:49:59;;;;;;;36.97;19.15;;;;;;;;;;4965153;28;20146;-67
2023/03/20 05:52:25;;;;;;;37.40;17.88;;;;;;;;;;4962815;28;20079;-67
2023/03/20 05:54:52;;;;;;;32.33;18.60;;;;;;;;;;4947387;28;20055;-66
2023/03/20 05:57:18;;;;;;;41.85;19.20;;;;;;;;;;4946113;28;20053;-65
2023/03/20 05:59:44;;;;;;;38.50;17.90;;;;;;;;;;4963057;28;20450;-65
2023/03/20 06:02:10;;;;;;;30.23;16.83;;;;;;;;;;4947162;28;20061;-65
2023/03/20 06:04:36;;;;;;;33.17;17.23;;;;;;;;;;4966281;28;20047;-65
2023/03/20 06:07:03;;;;;;;33.08;17.30;;;;;;;;;;4965518;28;20050;-65
2023/03/20 06:09:30;;;;;;;35.60;17.40;;;;;;;;;;4962941;28;20049;-65
2023/03/20 06:11:56;;;;;;;41.78;18.42;;;;;;;;;;4962759;28;20450;-65
2023/03/20 06:14:22;;;;;;;36.17;17.67;;;;;;;;;;4963481;28;20042;-65
2023/03/20 06:16:49;;;;;;;35.47;19.67;;;;;;;;;;4963101;28;20491;-65
2023/03/20 06:19:15;;;;;;;33.67;18.42;;;;;;;;;;4945201;28;20062;-65
2023/03/20 06:21:41;;;;;;;40.15;18.45;;;;;;;;;;4966156;28;20151;-67
2023/03/20 06:24:07;;;;;;;33.85;17.98;;;;;;;;;;4945056;28;20126;-65
2023/03/20 06:26:33;;;;;;;33.33;18.92;;;;;;;;;;4963867;28;20058;-65
2023/03/20 06:28:59;;;;;;;38.88;18.83;;;;;;;;;;4964381;28;20173;-66
2023/03/20 06:31:26;;;;;;;34.05;19.27;;;;;;;;;;4962958;28;20050;-66
2023/03/20 06:33:52;;;;;;;34.70;17.63;;;;;;;;;;4963494;28;20050;-66
2023/03/20 06:36:18;;;;;;;32.08;19.33;;;;;;;;;;4965302;28;20046;-66
2023/03/20 06:38:45;;;;;;;37.95;18.60;;;;;;;;;;4965769;28;20039;-66
2023/03/20 06:41:11;;;;;;;34.40;18.60;;;;;;;;;;4964452;28;20047;-66
2023/03/20 06:43:38;;;;;;;34.55;19.92;;;;;;;;;;4962610;28;20046;-66
2023/03/20 06:46:05;;;;;;;35.28;19.52;;;;;;;;;;4963929;28;21567;-66
2023/03/20 06:48:32;;;;;;;37.50;17.98;;;;;;;;;;4963706;28;20494;-66
2023/03/20 06:50:58;;;;;;;34.30;19.55;;;;;;;;;;4965283;28;20045;-66
2023/03/20 06:53:24;;;;;;;36.35;19.60;;;;;;;;;;4962614;28;20054;-66
2023/03/20 06:55:51;;;;;;;38.25;19.05;;;;;;;;;;4965407;28;20074;-66
2023/03/20 06:58:17;;;;;;;28.13;17.48;;;;;;;;;;4962988;28;20396;-66
2023/03/20 07:00:43;;;;;;;36.08;19.48;;;;;;;;;;4958992;28;20510;-66
2023/03/20 07:03:10;;;;;;;39.88;19.95;;;;;;;;;;4962146;28;20035;-66
2023/03/20 07:05:37;;;;;;;42.47;21.17;;;;;;;;;;4962717;28;20043;-68
2023/03/20 07:08:03;;;;;;;35.42;19.27;;;;;;;;;;4961633;28;20058;-69
2023/03/20 07:10:29;;;;;;;40.90;20.38;;;;;;;;;;4945046;28;20054;-69
2023/03/20 07:12:56;;;;;;;40.28;18.50;;;;;;;;;;4963120;28;20921;-68
2023/03/20 07:15:23;;;;;;;37.10;19.80;;;;;;;;;;4964081;28;20042;-67
2023/03/20 07:17:49;;;;;;;33.67;18.35;;;;;;;;;;4964978;28;20082;-69
2023/03/20 07:20:15;;;;;;;32.63;18.73;;;;;;;;;;4950229;28;20043;-68
2023/03/20 07:22:42;;;;;;;37.95;18.55;;;;;;;;;;4963730;28;20039;-69
2023/03/20 07:25:09;;;;;;;33.28;20.08;;;;;;;;;;4965190;28;20142;-69
2023/03/20 07:27:36;;;;;;;39.38;19.35;;;;;;;;;;4962749;28;20051;-69
2023/03/20 07:30:03;;;;;;;37.55;20.50;;;;;;;;;;4950127;28;20055;-69
2023/03/20 07:32:29;;;;;;;37.97;18.85;;;;;;;;;;4965583;28;20046;-68
2023/03/20 07:34:55;;;;;;;31.48;18.20;;;;;;;;;;4965745;28;20465;-68
2023/03/20 07:37:21;;;;;;;35.45;19.40;;;;;;;;;;4965855;28;20056;-68
2023/03/20 07:39:48;;;;;;;34.65;19.52;;;;;;;;;;4963148;28;20057;-68
2023/03/20 07:42:14;;;;;;;36.17;19.27;;;;;;;;;;4961569;28;20046;-68
2023/03/20 07:44:41;;;;;;;40.92;19.63;;;;;;;;;;4964486;28;20057;-69
2023/03/20 07:47:07;;;;;;;30.10;18.60;;;;;;;;;;4961550;28;20047;-66
2023/03/20 07:49:34;;;;;;;34.58;16.95;;;;;;;;;;4950050;28;20039;-66
2023/03/20 07:52:00;;;;;;;40.30;19.13;;;;;;;;;;4961707;28;21061;-66
2023/03/20 07:54:26;;;;;;;33.67;18.08;;;;;;;;;;4963298;28;20725;-64
2023/03/20 07:56:53;;;;;;;33.83;18.02;;;;;;;;;;4958454;28;20416;-64
2023/03/20 07:59:19;;;;;;;35.40;17.88;;;;;;;;;;4960057;28;20375;-65
2023/03/20 08:01:45;;;;;;;34.10;17.40;;;;;;;;;;4963871;28;20047;-65
2023/03/20 08:04:11;;;;;;;38.78;19.60;;;;;;;;;;4956335;28;20062;-66
2023/03/20 08:06:38;;;;;;;35.88;18.50;;;;;;;;;;4967892;28;20038;-65
2023/03/20 08:09:06;;;;;;;34.78;17.42;;;;;;;;;;4968504;28;20061;-65
2023/03/20 08:11:32;;;;;;;34.50;16.77;;;;;;;;;;4964034;28;20418;-65
2023/03/20 08:13:58;;;;;;;30.42;18.33;;;;;;;;;;4980870;28;20051;-64
2023/03/20 08:16:24;;;;;;;31.48;16.75;;;;;;;;;;4960781;28;21075;-65
2023/03/20 08:18:52;;;;;;;32.42;17.45;;;;;;;;;;4965503;28;20070;-65
2023/03/20 08:21:18;;;;;;;39.05;18.05;;;;;;;;;;4964000;28;20154;-65
2023/03/20 08:23:45;;;;;;;34.20;17.67;;;;;;;;;;4964113;28;20031;-65
2023/03/20 08:26:11;;;;;;;31.00;16.42;;;;;;;;;;4963449;28;20050;-65
2023/03/20 08:28:37;;;;;;;33.33;15.65;;;;;;;;;;4964252;28;20043;-65
2023/03/20 08:31:07;;;;;;;28.90;15.25;;;;;;;;;;4959712;28;20051;-65
2023/03/20 08:33:33;;;;;;;30.73;15.38;;;;;;;;;;4955582;28;20106;-65
2023/03/20 08:36:00;;;;;;;27.00;15.25;;;;;;;;;;4944889;28;20142;-65
2023/03/20 08:38:26;;;;;;;26.50;14.80;;;;;;;;;;4958894;28;20061;-65
2023/03/20 08:40:53;;;;;;;28.33;14.38;;;;;;;;;;4962809;28;20083;-65
2023/03/20 08:43:20;;;;;;;27.48;13.77;;;;;;;;;;4944843;28;20129;-65
2023/03/20 08:45:46;;;;;;;29.17;14.98;;;;;;;;;;4961850;28;20042;-65
2023/03/20 08:48:12;;;;;;;29.52;13.88;;;;;;;;;;4960251;28;20085;-65
2023/03/20 08:50:39;;;;;;;34.17;14.52;;;;;;;;;;4960989;28;20406;-65
2023/03/20 08:53:05;;;;;;;30.73;14.00;;;;;;;;;;4943284;28;20578;-64
2023/03/20 08:55:32;;;;;;;28.75;12.88;;;;;;;;;;4960218;28;20145;-65
2023/03/20 08:57:58;;;;;;;28.33;14.02;;;;;;;;;;4961406;28;20047;-65
2023/03/20 09:00:24;;;;;;;24.35;13.30;;;;;;;;;;4958871;28;20058;-65
2023/03/20 09:02:51;;;;;;;30.92;13.93;;;;;;;;;;4944512;28;20062;-65
2023/03/20 09:05:17;;;;;;;27.73;12.25;;;;;;;;;;4943790;28;20057;-65
2023/03/20 09:07:44;;;;;;;24.73;14.98;;;;;;;;;;4959803;28;20043;-65
2023/03/20 09:10:11;;;;;;;25.00;12.65;;;;;;;;;;4944391;28;20066;-66
2023/03/20 09:12:37;;;;;;;19.83;12.25;;;;;;;;;;4946865;28;20053;-65
2023/03/20 09:15:04;;;;;;;26.77;14.38;;;;;;;;;;4948784;28;20126;-64
2023/03/20 09:17:30;;;;;;;29.05;14.27;;;;;;;;;;4964897;28;20113;-65
2023/03/20 09:19:57;;;;;;;28.17;14.35;;;;;;;;;;4964670;28;20119;-65
2023/03/20 09:22:23;;;;;;;22.65;12.40;;;;;;;;;;4961216;28;20510;-65
2023/03/20 09:24:49;;;;;;;30.35;14.45;;;;;;;;;;4969786;28;20039;-65
2023/03/20 09:27:15;;;;;;;29.98;12.98;;;;;;;;;;4968695;28;20047;-65
2023/03/20 09:29:42;;;;;;;26.83;12.70;;;;;;;;;;4969243;28;20130;-65
2023/03/20 09:32:12;;;;;;;26.23;12.85;;;;;;;;;;4969859;28;20509;-65
2023/03/20 09:34:38;;;;;;;25.40;11.82;;;;;;;;;;4967861;28;20062;-65
2023/03/20 09:37:05;;;;;;;30.80;12.95;;;;;;;;;;4968179;28;20047;-66
2023/03/20 09:39:32;;;;;;;25.98;12.13;;;;;;;;;;4968529;28;20067;-65
2023/03/20 09:42:01;;;;;;;25.75;12.00;;;;;;;;;;4950826;28;20074;-65
2023/03/20 09:44:35;;;;;;;28.80;12.75;;;;;;;;;;4962325;28;20047;-65
2023/03/20 09:47:16;;;;;;;25.08;12.48;;;;;;;;;;4964933;28;20105;-65
2023/03/20 09:49:42;;;;;;;29.23;11.63;;;;;;;;;;4959792;28;20043;-65
2023/03/20 09:52:09;;;;;;;25.65;11.30;;;;;;;;;;4948265;28;20049;-64
2023/03/20 09:54:39;;;;;;;24.15;10.93;;;;;;;;;;4964007;28;20042;-69
2023/03/20 09:57:05;;;;;;;28.13;11.02;;;;;;;;;;4959136;28;20043;-69
2023/03/20 09:59:34;;;;;;;27.98;12.60;;;;;;;;;;4965258;28;20079;-68
2023/03/20 10:02:12;;;;;;;27.58;12.02;;;;;;;;;;4947352;28;20129;-66
2023/03/20 10:04:38;;;;;;;32.22;12.02;;;;;;;;;;4944969;28;20047;-63
2023/03/20 10:07:05;;;;;;;27.92;12.35;;;;;;;;;;4964805;28;20043;-63
2023/03/20 10:09:32;;;;;;;27.95;12.75;;;;;;;;;;4944414;28;20043;-68
2023/03/20 10:12:07;;;;;;;24.23;11.90;;;;;;;;;;4945366;28;20058;-64
2023/03/20 10:14:48;;;;;;;23.45;9.95;;;;;;;;;;4964751;28;20051;-69
2023/03/20 10:17:27;;;;;;;30.63;11.48;;;;;;;;;;4942532;28;20063;-66
2023/03/20 10:19:57;;;;;;;31.48;10.93;;;;;;;;;;4945507;28;20038;-76
2023/03/20 10:22:28;;;;;;;28.65;10.48;;;;;;;;;;4947938;28;20141;-65
2023/03/20 10:24:54;;;;;;;20.38;10.88;;;;;;;;;;4962976;28;20525;-65
2023/03/20 10:27:23;;;;;;;26.60;9.45;;;;;;;;;;4962950;28;20406;-65
2023/03/20 10:29:57;;;;;;;26.92;10.18;;;;;;;;;;4963649;28;20055;-65
2023/03/20 10:32:34;;;;;;;26.70;11.65;;;;;;;;;;4962537;28;20116;-65
2023/03/20 10:35:09;;;;;;;26.55;12.15;;;;;;;;;;4965625;28;20042;-65
2023/03/20 10:37:57;;;;;;;32.70;11.88;;;;;;;;;;4962218;28;20034;-65
2023/03/20 10:40:31;;;;;;;26.33;11.73;;;;;;;;;;4945647;28;20070;-66
2023/03/20 10:43:01;;;;;;;27.10;10.43;;;;;;;;;;4965685;28;20042;-65
2023/03/20 10:45:39;;;;;;;27.75;10.25;;;;;;;;;;4964050;28;20041;-65
2023/03/20 10:48:10;;;;;;;24.65;9.80;;;;;;;;;;4962362;28;20435;-65
2023/03/20 10:50:40;;;;;;;30.00;10.93;;;;;;;;;;4947416;28;20106;-65
2023/03/20 10:53:07;;;;;;;19.63;9.40;;;;;;;;;;4963027;28;20047;-65
2023/03/20 10:55:38;;;;;;;24.33;8.57;;;;;;;;;;4963686;28;22031;-65
2023/03/20 10:58:13;;;;;;;23.13;9.15;;;;;;;;;;4961643;28;20134;-65
2023/03/20 11:00:40;;;;;;;29.08;8.70;;;;;;;;;;4961480;28;20174;-64
2023/03/20 11:03:07;;;;;;;18.40;8.98;;;;;;;;;;4962445;28;21356;-78
2023/03/20 11:05:35;;;;;;;20.90;8.23;;;;;;;;;;4963850;28;20117;-65
2023/03/20 11:08:01;;;;;;;18.88;8.88;;;;;;;;;;4964395;28;20081;-65
2023/03/20 11:10:30;;;;;;;24.30;9.65;;;;;;;;;;4963422;28;20137;-64
2023/03/20 11:12:57;;;;;;;25.35;10.50;;;;;;;;;;4964210;28;20046;-64
2023/03/20 11:15:24;;;;;;;29.73;11.00;;;;;;;;;;4967694;28;20047;-65
2023/03/20 11:17:53;;;;;;;23.58;10.73;;;;;;;;;;4968318;28;20049;-64
2023/03/20 11:20:19;;;;;;;24.40;11.20;;;;;;;;;;4964154;28;20089;-66
2023/03/20 11:22:46;;;;;;;30.15;12.55;;;;;;;;;;4957942;28;20131;-65
2023/03/20 11:25:24;;;;;;;27.63;11.32;;;;;;;;;;4945069;28;20058;-64
2023/03/20 11:27:50;;;;;;;19.83;10.40;;;;;;;;;;4957667;28;20345;-64
2023/03/20 11:30:17;;;;;;;22.30;12.02;;;;;;;;;;4957791;28;20051;-64
2023/03/20 11:32:48;;;;;;;26.30;13.45;;;;;;;;;;4961504;28;20514;-64
2023/03/20 11:35:31;;;;;;;32.50;14.20;;;;;;;;;;4966093;28;20047;-65
2023/03/20 11:38:17;;;;;;;31.27;15.43;;;;;;;;;;4965939;28;20050;-65
2023/03/20 11:40:43;;;;;;;30.13;14.25;;;;;;;;;;4964017;28;20095;-64
2023/03/20 11:43:11;;;;;;;33.00;15.82;;;;;;;;;;4966343;28;20043;-64
2023/03/20 11:45:43;;;;;;;33.53;16.75;;;;;;;;;;4966122;28;20047;-65
2023/03/20 11:48:18;;;;;;;38.75;17.42;;;;;;;;;;4946217;28;20047;-64
2023/03/20 11:50:46;;;;;;;32.50;16.40;;;;;;;;;;4965195;28;21725;-64
2023/03/20 11:53:23;;;;;;;38.20;20.45;;;;;;;;;;4964557;28;20050;-65
2023/03/20 11:55:59;;;;;;;31.58;17.92;;;;;;;;;;4945587;28;20469;-64
2023/03/20 11:58:26;;;;;;;39.20;19.45;;;;;;;;;;4964451;28;20043;-64
2023/03/20 12:00:54;;;;;;;29.73;17.15;;;;;;;;;;4964212;28;20054;-64
2023/03/20 12:03:41;;;;;;;34.60;19.13;;;;;;;;;;4963537;28;20046;-64
2023/03/20 12:06:08;;;;;;;31.45;18.73;;;;;;;;;;4964886;28;21633;-64
2023/03/20 12:08:36;;;;;;;35.30;20.50;;;;;;;;;;4947474;28;20074;-65
2023/03/20 12:11:09;;;;;;;36.10;18.95;;;;;;;;;;4961873;28;20125;-65
2023/03/20 12:13:39;;;;;;;31.77;19.83;;;;;;;;;;4964865;28;20054;-65
2023/03/20 12:16:09;;;;;;;40.30;20.70;;;;;;;;;;4961627;28;20042;-64
2023/03/20 12:18:38;;;;;;;38.40;20.77;;;;;;;;;;4963776;28;20042;-64
2023/03/20 12:21:07;;;;;;;34.40;19.33;;;;;;;;;;4965659;28;20442;-65
2023/03/20 12:23:43;;;;;;;31.23;19.77;;;;;;;;;;4964980;28;20109;-64
2023/03/20 12:26:13;;;;;;;29.58;18.48;;;;;;;;;;4948788;28;20078;-64
2023/03/20 12:28:47;;;;;;;28.67;18.48;;;;;;;;;;4965434;28;20142;-65
2023/03/20 12:31:31;;;;;;;31.45;20.10;;;;;;;;;;4963824;28;20491;-64
2023/03/20 12:34:04;;;;;;;32.47;18.55;;;;;;;;;;4963035;28;20471;-64
2023/03/20 12:36:33;;;;;;;27.55;17.52;;;;;;;;;;4939904;28;20061;-64
2023/03/20 12:39:01;;;;;;;35.08;20.17;;;;;;;;;;4942277;28;20194;-64
2023/03/20 12:41:30;;;;;;;25.08;16.77;;;;;;;;;;4960239;28;20673;-64
2023/03/20 12:44:04;;;;;;;27.92;18.92;;;;;;;;;;4944280;28;20047;-64
2023/03/20 12:46:33;;;;;;;32.10;18.60;;;;;;;;;;4963165;28;20070;-64
2023/03/20 12:49:07;;;;;;;32.53;20.05;;;;;;;;;;4960261;28;20441;-69
2023/03/20 12:51:33;;;;;;;;;;;;;;;;;;4961268;28;20725;-73
2023/03/20 12:54:00;;;;;;;29.05;18.33;;;;;;;;;;4941910;28;20266;-64
2023/03/20 12:56:46;;;;;;;28.58;19.17;;;;;;;;;;4963747;28;20054;-76
2023/03/20 12:59:22;;;;;;;33.65;19.17;;;;;;;;;;4934641;28;20055;-67
2023/03/20 13:01:55;;;;;;;33.03;18.60;;;;;;;;;;4960674;28;20046;-79
2023/03/20 13:04:48;;;;;;;30.60;18.95;;;;;;;;;;4933219;28;20051;-64
2023/03/20 13:07:18;;;;;;;35.17;20.33;;;;;;;;;;4957093;28;20054;-65
2023/03/20 13:10:00;;;;;;;29.02;19.08;;;;;;;;;;4958863;28;20093;-65
2023/03/20 13:12:33;;;;;;;26.40;18.33;;;;;;;;;;4960042;28;20858;-65
2023/03/20 13:15:17;;;;;;;28.98;18.23;;;;;;;;;;4961405;28;20042;-65
2023/03/20 13:17:52;;;;;;;28.52;18.75;;;;;;;;;;4961109;28;20042;-65
2023/03/20 13:20:26;;;;;;;30.88;19.10;;;;;;;;;;4958533;28;20446;-66
2023/03/20 13:22:56;;;;;;;31.02;19.33;;;;;;;;;;4943442;28;20062;-66
2023/03/20 13:25:23;;;;;;;28.38;18.80;;;;;;;;;;4960915;28;20057;-66
2023/03/20 13:27:53;;;;;;;24.30;17.50;;;;;;;;;;4960494;28;20051;-66
2023/03/20 13:30:32;;;;;;;30.25;19.27;;;;;;;;;;4959052;28;20054;-66
2023/03/20 13:33:25;;;;;;;29.45;19.38;;;;;;;;;;4961341;28;20055;-66
2023/03/20 13:35:55;;;;;;;28.20;19.02;;;;;;;;;;4959765;28;20400;-65
2023/03/20 13:38:24;;;;;;;27.58;18.38;;;;;;;;;;4957415;28;20132;-67
2023/03/20 13:40:54;;;;;;;25.02;17.48;;;;;;;;;;4939941;28;20066;-76
2023/03/20 13:43:30;;;;;;;27.15;18.42;;;;;;;;;;4941097;28;20125;-66
2023/03/20 13:46:06;;;;;;;29.83;18.02;;;;;;;;;;4949523;28;20074;-65
2023/03/20 13:48:35;;;;;;;28.85;20.73;;;;;;;;;;4958295;28;20047;-70
2023/03/20 13:51:07;;;;;;;31.50;21.08;;;;;;;;;;4928669;28;20054;-67
2023/03/20 13:53:53;;;;;;;33.75;22.15;;;;;;;;;;4960765;28;20035;-67
2023/03/20 13:56:20;;;;;;;29.23;19.73;;;;;;;;;;4964234;28;20465;-68
2023/03/20 13:58:47;;;;;;;32.80;22.58;;;;;;;;;;4946157;28;20362;-68
2023/03/20 14:01:21;;;;;;;30.30;19.95;;;;;;;;;;4963711;28;20466;-67
2023/03/20 14:03:48;;;;;;;31.65;20.35;;;;;;;;;;4963646;28;20050;-67
2023/03/20 14:06:28;;;;;;;33.95;21.13;;;;;;;;;;4967628;28;20066;-67
2023/03/20 14:08:55;;;;;;;32.97;21.98;;;;;;;;;;4945222;28;20089;-68
2023/03/20 14:11:21;;;;;;;30.10;21.13;;;;;;;;;;4947908;28;20487;-67
2023/03/20 14:13:49;;;;;;;33.33;20.63;;;;;;;;;;4966066;28;21026;-68
2023/03/20 14:16:18;;;;;;;38.42;22.58;;;;;;;;;;4945912;28;20078;-69
2023/03/20 14:18:48;;;;;;;34.38;21.75;;;;;;;;;;4966659;28;20097;-88
2023/03/20 14:21:17;;;;;;;30.88;20.77;;;;;;;;;;4951283;28;20090;-68
2023/03/20 14:23:49;;;;;;;34.38;20.48;;;;;;;;;;4962965;28;20074;-68
2023/03/20 14:26:22;;;;;;;32.03;21.63;;;;;;;;;;4965665;28;20055;-67
2023/03/20 14:28:54;;;;;;;36.97;21.17;;;;;;;;;;4947516;28;20289;-66
2023/03/20 14:31:23;;;;;;;29.80;19.90;;;;;;;;;;4965124;28;20762;-66